Time;durP1;ratioP1;P1;durP2;ratioP2;P2;SDS_P1;SDS_P2;PMS_P1;PMS_P2;Temp;Humidity;BMP_temperature;BMP_pressure;BME280_temperature;BME280_humidity;BME280_pressure;Samples;Min_cycle;Max_cycle;Signal;HPM_P1;HPM_P2
2022/09/11 00:01:08;;;;;;;17.00;12.20;;;;;;;12.11;90.64;99741.52;1642666;85;25488;-67
2022/09/11 00:03:35;;;;;;;18.05;12.53;;;;;;;12.10;90.58;99738.56;1642537;85;25795;-68
2022/09/11 00:06:06;;;;;;;17.23;12.93;;;;;;;12.09;90.60;99743.20;1642644;85;25443;-68
2022/09/11 00:08:34;;;;;;;16.05;12.15;;;;;;;12.09;90.78;99739.70;1642602;85;27594;-67
2022/09/11 00:11:11;;;;;;;15.10;11.78;;;;;;;12.08;90.66;99724.55;1621122;87;25484;-67
2022/09/11 00:13:39;;;;;;;16.27;12.15;;;;;;;12.05;90.53;99726.00;1642391;85;25407;-68
2022/09/11 00:16:20;;;;;;;15.28;11.88;;;;;;;12.03;90.66;99724.77;1621186;87;25698;-67
2022/09/11 00:18:48;;;;;;;17.62;12.47;;;;;;;12.04;90.75;99721.72;1642597;85;25481;-67
2022/09/11 00:21:16;;;;;;;13.60;10.53;;;;;;;12.04;90.96;99724.43;1621241;87;27416;-67
2022/09/11 00:23:43;;;;;;;14.53;11.93;;;;;;;12.05;91.08;99718.44;1642611;86;25708;-67
2022/09/11 00:26:10;;;;;;;16.48;12.00;;;;;;;12.04;91.05;99718.23;1635584;87;25635;-68
2022/09/11 00:28:37;;;;;;;13.30;11.43;;;;;;;12.04;91.19;99710.87;1622574;86;26379;-67
2022/09/11 00:31:12;;;;;;;14.85;12.20;;;;;;;12.04;91.19;99714.95;1622696;86;25415;-68
2022/09/11 00:33:39;;;;;;;14.63;11.45;;;;;;;12.02;91.16;99719.91;1622594;86;27333;-67
2022/09/11 00:36:19;;;;;;;17.77;11.90;;;;;;;12.02;91.31;99709.61;1622584;86;25716;-67
2022/09/11 00:38:49;;;;;;;16.10;11.97;;;;;;;12.02;91.42;99705.00;1622664;86;25623;-66
2022/09/11 00:41:24;;;;;;;14.00;11.65;;;;;;;12.02;91.54;99706.36;1635677;86;25721;-66
2022/09/11 00:43:58;;;;;;;14.03;11.53;;;;;;;12.02;91.65;99708.25;1622597;86;25496;-67
2022/09/11 00:46:49;;;;;;;16.62;11.75;;;;;;;12.03;91.66;99711.20;1622672;86;27390;-67
2022/09/11 00:49:39;;;;;;;15.43;12.05;;;;;;;12.02;91.74;99710.42;1596384;87;25688;-68
2022/09/11 00:52:28;;;;;;;15.18;12.25;;;;;;;12.02;91.73;99700.94;1592361;87;25482;-67
2022/09/11 00:54:59;;;;;;;16.03;12.43;;;;;;;12.03;91.86;99703.08;1596707;87;26328;-67
2022/09/11 00:57:30;;;;;;;13.22;11.10;;;;;;;12.03;91.94;99697.66;1595511;87;25696;-66
2022/09/11 00:59:58;;;;;;;16.15;12.25;;;;;;;12.02;91.85;99700.94;1604805;87;27311;-66
2022/09/11 01:02:29;;;;;;;15.25;12.47;;;;;;;12.03;91.90;99699.02;1610854;87;25763;-68
2022/09/11 01:04:58;;;;;;;16.07;11.95;;;;;;;12.02;91.98;99696.87;1610855;87;25627;-67
2022/09/11 01:07:26;;;;;;;16.42;12.40;;;;;;;12.01;92.04;99694.49;1610951;87;25844;-67
2022/09/11 01:09:53;;;;;;;14.87;12.07;;;;;;;12.02;92.16;99691.45;1610903;87;25501;-67
2022/09/11 01:12:35;;;;;;;16.82;12.43;;;;;;;12.03;92.17;99688.17;1610803;87;28298;-67
2022/09/11 01:15:07;;;;;;;18.40;12.55;;;;;;;12.02;92.19;99686.03;1610807;87;25683;-67
2022/09/11 01:18:07;;;;;;;19.55;14.20;;;;;;;12.02;92.19;99690.64;1610915;87;25646;-66
2022/09/11 01:20:58;;;;;;;18.52;14.30;;;;;;;11.99;92.04;99678.56;1610814;87;26006;-65
2022/09/11 01:23:48;;;;;;;18.25;14.47;;;;;;;11.98;92.18;99683.73;1610011;87;25731;-66
2022/09/11 01:26:49;;;;;;;19.73;15.15;;;;;;;11.98;92.32;99684.31;1631557;87;27635;-67
2022/09/11 01:29:54;;;;;;;18.32;14.18;;;;;;;11.97;92.23;99686.23;1624433;86;25447;-65
2022/09/11 01:32:28;;;;;;;18.42;14.65;;;;;;;11.95;92.30;99683.05;1637577;86;26882;-68
2022/09/11 01:35:22;;;;;;;18.17;14.53;;;;;;;11.94;92.38;99676.84;1637525;86;25631;-67
2022/09/11 01:37:59;;;;;;;18.12;14.33;;;;;;;11.92;92.52;99675.03;1621145;87;25441;-66
2022/09/11 01:40:40;;;;;;;24.32;16.12;;;;;;;11.93;92.61;99677.17;1620056;86;27592;-66
2022/09/11 01:43:12;;;;;;;22.20;15.25;;;;;;;11.92;92.60;99675.03;1621140;87;25667;-66
2022/09/11 01:45:43;;;;;;;18.65;14.33;;;;;;;11.93;92.73;99671.75;1621243;87;25603;-66
2022/09/11 01:48:13;;;;;;;17.52;13.83;;;;;;;11.90;92.60;99673.73;1622056;87;25643;-66
2022/09/11 01:50:44;;;;;;;17.27;13.85;;;;;;;11.91;92.72;99674.00;1621162;87;25477;-66
2022/09/11 01:53:15;;;;;;;21.12;14.18;;;;;;;11.89;92.72;99667.53;1621181;87;27464;-66
2022/09/11 01:55:49;;;;;;;20.85;14.95;;;;;;;11.89;92.84;99670.23;1621032;87;25586;-66
2022/09/11 01:58:28;;;;;;;21.07;14.38;;;;;;;11.89;92.91;99667.53;1621196;87;25471;-67
2022/09/11 02:01:00;;;;;;;18.62;14.75;;;;;;;11.90;92.99;99667.77;1621292;87;26566;-67
2022/09/11 02:03:38;;;;;;;18.70;14.03;;;;;;;11.90;92.99;99666.95;1620392;87;25582;-66
2022/09/11 02:06:08;;;;;;;19.50;14.60;;;;;;;11.89;93.00;99664.82;1620477;87;27421;-66
2022/09/11 02:08:52;;;;;;;18.00;14.25;;;;;;;11.88;92.98;99664.58;1620274;87;25446;-66
2022/09/11 02:11:21;;;;;;;19.82;13.55;;;;;;;11.88;93.00;99664.58;1621119;86;25643;-67
2022/09/11 02:14:05;;;;;;;17.98;13.68;;;;;;;11.86;93.04;99669.55;1621171;86;26344;-67
2022/09/11 02:16:52;;;;;;;16.27;12.95;;;;;;;11.87;93.22;99667.65;1621175;87;25440;-66
2022/09/11 02:19:27;;;;;;;17.35;13.72;;;;;;;11.86;93.21;99666.05;1621166;87;27395;-66
2022/09/11 02:21:56;;;;;;;21.60;13.80;;;;;;;11.86;93.31;99665.48;1621082;87;25673;-66
2022/09/11 02:24:23;;;;;;;16.60;12.65;;;;;;;11.86;93.28;99666.05;1621220;87;25481;-66
2022/09/11 02:26:54;;;;;;;17.67;13.68;;;;;;;11.83;93.26;99660.72;1621073;87;26240;-67
2022/09/11 02:29:20;;;;;;;20.02;13.32;;;;;;;11.84;93.30;99665.02;1621177;87;25431;-67
2022/09/11 02:31:49;;;;;;;17.42;13.50;;;;;;;11.85;93.44;99667.16;1618570;87;27409;-68
2022/09/11 02:34:19;;;;;;;16.73;11.85;;;;;;;11.86;93.49;99663.34;1621039;87;25702;-67
2022/09/11 02:37:22;;;;;;;17.57;12.30;;;;;;;11.87;93.49;99660.88;1621118;87;25508;-67
2022/09/11 02:40:33;;;;;;;15.48;11.95;;;;;;;11.87;93.58;99660.30;1621079;87;26505;-66
2022/09/11 02:43:46;;;;;;;15.23;11.65;;;;;;;11.87;93.50;99654.09;1620870;87;25491;-67
2022/09/11 02:46:50;;;;;;;16.42;11.48;;;;;;;11.86;93.54;99647.87;1621119;87;27434;-68
2022/09/11 02:49:33;;;;;;;14.10;10.28;;;;;;;11.86;93.49;99651.93;1621036;87;25678;-67
2022/09/11 02:52:11;;;;;;;12.40;10.35;;;;;;;11.85;93.43;99656.33;1620564;87;25708;-67
2022/09/11 02:54:55;;;;;;;14.23;10.70;;;;;;;11.84;93.56;99647.98;1620700;87;25649;-67
2022/09/11 02:57:56;;;;;;;13.40;10.85;;;;;;;11.84;93.62;99646.62;1619700;87;25764;-66
2022/09/11 03:00:22;;;;;;;12.98;10.55;;;;;;;11.82;93.49;99640.19;1620986;87;28122;-66
2022/09/11 03:02:48;;;;;;;13.75;9.98;;;;;;;11.79;93.52;99640.84;1621047;87;25460;-66
2022/09/11 03:05:15;;;;;;;12.68;9.80;;;;;;;11.80;93.54;99638.92;1621067;87;25637;-66
2022/09/11 03:07:41;;;;;;;12.05;9.28;;;;;;;11.79;93.52;99634.07;1620998;87;27793;-66
2022/09/11 03:10:10;;;;;;;12.63;9.43;;;;;;;11.78;93.51;99640.06;1621103;87;25717;-67
2022/09/11 03:12:38;;;;;;;15.23;9.23;;;;;;;11.80;93.56;99634.85;1621157;87;27172;-66
2022/09/11 03:15:09;;;;;;;10.50;8.78;;;;;;;11.79;93.48;99635.42;1631343;87;25431;-66
2022/09/11 03:17:35;;;;;;;12.13;9.43;;;;;;;11.77;93.46;99634.41;1612757;87;25443;-66
2022/09/11 03:20:04;;;;;;;11.43;8.70;;;;;;;11.77;93.50;99639.04;1622550;86;25581;-66
2022/09/11 03:22:30;;;;;;;13.80;9.03;;;;;;;11.74;93.45;99635.06;1621171;87;25606;-66
2022/09/11 03:24:56;;;;;;;10.05;8.43;;;;;;;11.70;93.46;99627.95;1621133;87;27415;-67
2022/09/11 03:27:23;;;;;;;10.48;8.75;;;;;;;11.72;93.42;99633.83;1621018;87;25772;-67
2022/09/11 03:29:49;;;;;;;13.28;8.85;;;;;;;11.71;93.47;99633.04;1621011;87;25968;-67
2022/09/11 03:32:15;;;;;;;10.23;9.05;;;;;;;11.71;93.53;99632.23;1621032;87;25724;-67
2022/09/11 03:34:41;;;;;;;11.90;8.20;;;;;;;11.71;93.60;99634.94;1622463;87;25453;-67
2022/09/11 03:37:07;;;;;;;11.30;9.48;;;;;;;11.70;93.62;99631.44;1621094;87;27364;-67
2022/09/11 03:39:33;;;;;;;9.98;8.75;;;;;;;11.70;93.66;99626.03;1620988;87;25503;-67
2022/09/11 03:42:00;;;;;;;12.10;8.53;;;;;;;11.70;93.62;99626.59;1621118;87;29740;-67
2022/09/11 03:44:26;;;;;;;9.28;7.95;;;;;;;11.69;93.62;99630.42;1621045;87;25687;-67
2022/09/11 03:46:52;;;;;;;10.48;8.15;;;;;;;11.68;93.57;99627.47;1621067;87;25628;-67
2022/09/11 03:49:19;;;;;;;8.95;8.03;;;;;;;11.67;93.63;99630.75;1621085;87;27359;-67
2022/09/11 03:51:46;;;;;;;13.18;8.73;;;;;;;11.67;93.69;99628.61;1620931;87;27125;-67
2022/09/11 03:54:14;;;;;;;9.80;8.40;;;;;;;11.67;93.78;99629.39;1621102;87;25627;-68
2022/09/11 03:56:41;;;;;;;9.05;7.60;;;;;;;11.66;93.79;99627.80;1621044;87;26183;-68
2022/09/11 03:59:08;;;;;;;10.00;7.90;;;;;;;11.65;93.72;99624.88;1622634;87;25811;-68
2022/09/11 04:01:34;;;;;;;21.23;8.65;;;;;;;11.65;93.76;99625.45;1621629;87;26618;-67
2022/09/11 04:04:03;;;;;;;8.88;7.85;;;;;;;11.63;93.77;99623.07;1621703;87;25858;-67
2022/09/11 04:06:33;;;;;;;12.68;8.58;;;;;;;11.64;93.75;99626.56;1621876;87;25743;-68
2022/09/11 04:09:00;;;;;;;10.63;7.92;;;;;;;11.61;93.67;99624.51;1621665;87;26220;-67
2022/09/11 04:11:26;;;;;;;9.08;8.13;;;;;;;11.59;93.59;99624.30;1621780;87;25711;-67
2022/09/11 04:13:53;;;;;;;10.98;8.10;;;;;;;11.57;93.59;99629.23;1621652;87;27360;-70
2022/09/11 04:16:20;;;;;;;10.45;7.90;;;;;;;11.55;93.65;99627.99;1621653;87;25662;-67
2022/09/11 04:18:48;;;;;;;9.03;7.75;;;;;;;11.53;93.73;99625.61;1621753;87;25639;-67
2022/09/11 04:21:17;;;;;;;9.03;7.77;;;;;;;11.53;93.73;99629.67;1621924;87;25755;-67
2022/09/11 04:23:44;;;;;;;8.70;7.50;;;;;;;11.52;93.77;99625.94;1622002;87;25612;-67
2022/09/11 04:26:20;;;;;;;11.60;8.00;;;;;;;11.50;93.75;99624.12;1621732;88;27434;-67
2022/09/11 04:28:46;;;;;;;10.00;8.13;;;;;;;11.49;93.76;99623.34;1621664;87;25680;-67
2022/09/11 04:31:15;;;;;;;13.60;9.08;;;;;;;11.47;93.78;99626.92;1640420;86;25581;-67
2022/09/11 04:33:42;;;;;;;10.55;8.35;;;;;;;11.47;93.89;99629.63;1622842;86;25676;-67
2022/09/11 04:36:14;;;;;;;10.75;8.83;;;;;;;11.46;93.84;99626.71;1621744;87;25500;-67
2022/09/11 04:38:40;;;;;;;11.55;8.73;;;;;;;11.44;93.79;99626.25;1621693;87;27364;-67
2022/09/11 04:41:08;;;;;;;12.90;9.53;;;;;;;11.44;93.92;99630.86;1621328;86;25655;-67
2022/09/11 04:43:37;;;;;;;12.07;9.20;;;;;;;11.43;94.07;99627.37;1621552;87;25420;-67
2022/09/11 04:46:12;;;;;;;13.35;9.08;;;;;;;11.44;94.07;99624.91;1621774;87;25657;-67
2022/09/11 04:48:47;;;;;;;10.43;8.80;;;;;;;11.43;94.12;99622.52;1621717;87;25685;-67
2022/09/11 04:51:24;;;;;;;11.57;8.50;;;;;;;11.43;94.22;99617.11;1621720;87;27375;-67
2022/09/11 04:53:56;;;;;;;10.40;8.68;;;;;;;11.42;94.19;99614.16;1621637;88;25471;-67
2022/09/11 04:56:21;;;;;;;11.05;8.58;;;;;;;11.41;94.17;99617.44;1621572;87;25562;-68
2022/09/11 04:59:08;;;;;;;11.85;8.75;;;;;;;11.40;94.13;99613.13;1621734;88;26003;-68
2022/09/11 05:01:35;;;;;;;10.63;8.70;;;;;;;11.38;94.20;99613.45;1620943;87;25754;-68
2022/09/11 05:04:01;;;;;;;10.63;8.93;;;;;;;11.37;94.15;99608.38;1621211;87;27371;-67
2022/09/11 05:06:30;;;;;;;9.23;8.25;;;;;;;11.36;94.01;99606.80;1622524;87;25704;-68
2022/09/11 05:09:03;;;;;;;10.30;8.68;;;;;;;11.34;93.99;99610.38;1621221;87;25513;-68
2022/09/11 05:11:30;;;;;;;12.18;9.33;;;;;;;11.35;94.02;99609.27;1621173;87;25487;-68
2022/09/11 05:14:00;;;;;;;11.05;9.10;;;;;;;11.35;94.20;99609.27;1621222;87;25492;-68
2022/09/11 05:16:27;;;;;;;;;;;;;;;11.33;94.20;99605.53;1623540;86;27345;-68
2022/09/11 05:18:55;;;;;;;12.23;8.93;;;;;;;11.35;94.44;99606.56;1621156;87;25740;-68
2022/09/11 05:21:24;;;;;;;13.18;9.58;;;;;;;11.33;94.46;99604.18;1621108;87;25875;-68
2022/09/11 05:23:54;;;;;;;11.50;9.15;;;;;;;11.35;94.48;99605.20;1621219;87;25710;-68
2022/09/11 05:26:27;;;;;;;;;;;;;;;11.35;94.42;99603.85;1623562;86;25423;-68
2022/09/11 05:28:58;;;;;;;11.95;9.05;;;;;;;11.35;94.51;99605.98;1621154;87;27407;-68
2022/09/11 05:31:25;;;;;;;11.50;9.45;;;;;;;11.33;94.38;99602.05;1620119;87;25591;-67
2022/09/11 05:33:54;;;;;;;14.10;9.20;;;;;;;11.32;94.41;99605.32;1621122;88;25436;-68
2022/09/11 05:36:21;;;;;;;12.15;8.43;;;;;;;11.33;94.43;99610.16;1621214;88;25672;-67
2022/09/11 05:38:48;;;;;;;11.12;8.50;;;;;;;11.34;94.38;99604.96;1621322;87;25523;-69
2022/09/11 05:41:15;;;;;;;12.25;8.48;;;;;;;11.33;94.40;99606.89;1622848;87;27391;-67
2022/09/11 05:43:43;;;;;;;11.40;8.50;;;;;;;11.33;94.37;99601.47;1621040;87;25431;-67
2022/09/11 05:46:13;;;;;;;12.00;8.20;;;;;;;11.32;94.47;99597.20;1603167;87;25693;-67
2022/09/11 05:48:40;;;;;;;11.28;8.60;;;;;;;11.34;94.63;99602.25;1621047;87;25677;-67
2022/09/11 05:51:20;;;;;;;11.57;7.85;;;;;;;11.35;94.58;99593.80;1621116;87;25453;-67
2022/09/11 05:53:51;;;;;;;10.58;7.83;;;;;;;11.34;94.40;99599.01;1621165;87;27410;-67
2022/09/11 05:56:21;;;;;;;10.80;8.20;;;;;;;11.32;94.19;99593.14;1621150;86;25653;-67
2022/09/11 05:58:50;;;;;;;13.30;8.13;;;;;;;11.32;94.23;99596.38;1621149;87;25670;-67
2022/09/11 06:01:20;;;;;;;8.30;7.50;;;;;;;11.32;94.24;99597.73;1619786;87;25706;-68
2022/09/11 06:03:47;;;;;;;10.93;9.35;;;;;;;11.32;94.51;99601.26;1618560;87;25567;-68
2022/09/11 06:06:16;;;;;;;10.58;8.33;;;;;;;11.32;94.56;99601.26;1621787;87;27473;-67
2022/09/11 06:08:43;;;;;;;12.87;8.60;;;;;;;11.33;94.76;99606.89;1647594;86;25802;-67
2022/09/11 06:11:12;;;;;;;10.28;7.87;;;;;;;11.36;94.97;99608.16;1635815;87;25648;-68
2022/09/11 06:13:42;;;;;;;12.53;8.10;;;;;;;11.38;95.02;99604.55;1636547;87;25639;-68
2022/09/11 06:16:18;;;;;;;10.63;8.30;;;;;;;11.39;94.96;99606.12;1634032;87;25453;-68
2022/09/11 06:18:49;;;;;;;12.90;8.53;;;;;;;11.39;94.83;99612.34;1619007;86;27529;-67
2022/09/11 06:21:19;;;;;;;9.63;8.25;;;;;;;11.41;95.04;99607.95;1620734;86;25663;-68
2022/09/11 06:23:47;;;;;;;12.53;9.45;;;;;;;11.43;94.92;99611.12;1614169;86;25658;-67
2022/09/11 06:26:17;;;;;;;13.62;9.83;;;;;;;11.44;94.80;99610.01;1647777;86;26191;-68
2022/09/11 06:28:44;;;;;;;13.83;8.95;;;;;;;11.44;95.07;99612.72;1644925;86;25454;-68
2022/09/11 06:31:17;;;;;;;14.43;8.98;;;;;;;11.45;95.01;99612.14;1643664;86;27314;-68
2022/09/11 06:33:44;;;;;;;13.55;9.40;;;;;;;11.45;94.98;99612.93;1647910;86;25756;-67
2022/09/11 06:36:16;;;;;;;10.43;8.80;;;;;;;11.45;94.72;99614.85;1648530;86;25647;-67
2022/09/11 06:38:43;;;;;;;13.95;9.95;;;;;;;11.45;94.82;99613.50;1626039;86;25752;-67
2022/09/11 06:41:15;;;;;;;20.05;11.08;;;;;;;11.45;94.73;99611.58;1618616;86;25829;-67
2022/09/11 06:43:43;;;;;;;11.90;9.55;;;;;;;11.43;94.77;99611.12;1618498;86;27419;-67
2022/09/11 06:46:13;;;;;;;18.55;9.70;;;;;;;11.44;94.72;99603.78;1618929;86;26120;-68
2022/09/11 06:48:41;;;;;;;13.38;9.60;;;;;;;11.43;94.86;99604.35;1641171;87;25430;-68
2022/09/11 06:51:12;;;;;;;13.53;9.67;;;;;;;11.45;94.82;99605.37;1645033;86;26334;-69
2022/09/11 06:53:39;;;;;;;14.75;10.50;;;;;;;11.45;95.15;99611.58;1640142;86;25616;-69
2022/09/11 06:56:11;;;;;;;16.97;9.93;;;;;;;11.48;95.34;99610.14;1625233;87;27353;-68
2022/09/11 06:58:38;;;;;;;14.13;9.78;;;;;;;11.48;95.19;99613.63;1640573;87;25706;-68
2022/09/11 07:01:10;;;;;;;14.18;9.60;;;;;;;11.49;95.04;99617.12;1625340;86;26021;-68
2022/09/11 07:03:37;;;;;;;12.88;9.25;;;;;;;11.48;95.04;99616.34;1633044;86;25730;-68
2022/09/11 07:06:06;;;;;;;14.65;10.68;;;;;;;11.47;94.85;99613.38;1635621;86;25619;-69
2022/09/11 07:08:32;;;;;;;16.63;9.83;;;;;;;11.46;94.77;99616.42;1636713;86;28006;-69
2022/09/11 07:11:03;;;;;;;15.60;10.28;;;;;;;11.47;95.04;99616.66;1610106;87;25599;-69
2022/09/11 07:13:31;;;;;;;21.45;15.65;;;;;;;11.47;95.09;99616.09;1638431;87;25507;-69
2022/09/11 07:16:05;;;;;;;17.12;11.50;;;;;;;11.49;95.36;99615.22;1624434;87;25673;-69
2022/09/11 07:18:35;;;;;;;17.07;10.40;;;;;;;11.48;95.22;99612.84;1624622;86;25455;-69
2022/09/11 07:21:15;;;;;;;16.82;10.05;;;;;;;11.48;95.21;99608.78;1622845;86;27421;-68
2022/09/11 07:23:50;;;;;;;19.15;12.45;;;;;;;11.49;95.28;99609.80;1622461;86;25765;-68
2022/09/11 07:26:18;;;;;;;15.28;10.53;;;;;;;11.51;95.60;99603.49;1569958;89;25596;-68
2022/09/11 07:28:47;;;;;;;17.05;11.08;;;;;;;11.53;95.67;99609.36;1568945;91;25755;-68
2022/09/11 07:31:16;;;;;;;21.05;11.60;;;;;;;11.53;95.59;99605.30;1570176;89;25497;-67
2022/09/11 07:33:45;;;;;;;16.15;11.60;;;;;;;11.54;95.29;99607.44;1570328;89;27400;-67
2022/09/11 07:36:17;;;;;;;20.10;11.73;;;;;;;11.51;95.18;99604.03;1570311;89;25722;-68
2022/09/11 07:38:46;;;;;;;17.87;10.43;;;;;;;11.50;95.16;99604.60;1568763;91;25723;-68
2022/09/11 07:41:15;;;;;;;15.13;10.78;;;;;;;11.50;95.21;99598.41;1569764;91;25454;-68
2022/09/11 07:43:47;;;;;;;18.25;11.43;;;;;;;11.46;94.95;99593.40;1566857;90;25628;-68
2022/09/11 07:46:14;;;;;;;13.72;11.78;;;;;;;11.46;95.10;99600.17;1569139;90;27520;-68
2022/09/11 07:48:42;;;;;;;17.42;11.68;;;;;;;11.45;95.44;99595.33;1581698;89;25720;-69
2022/09/11 07:51:12;;;;;;;19.62;11.43;;;;;;;11.45;95.54;99597.25;1603985;86;25678;-69
2022/09/11 07:53:49;;;;;;;17.62;11.35;;;;;;;11.46;95.59;99589.34;1626848;87;25716;-69
2022/09/11 07:56:19;;;;;;;17.50;11.70;;;;;;;11.46;95.74;99591.50;1632275;87;25782;-68
2022/09/11 07:58:46;;;;;;;17.25;12.55;;;;;;;11.43;95.29;99596.80;1650376;85;27408;-67
2022/09/11 08:01:17;;;;;;;19.20;11.63;;;;;;;11.39;95.39;99596.09;1649049;85;25498;-67
2022/09/11 08:03:44;;;;;;;14.83;11.50;;;;;;;11.38;95.58;99593.15;1641727;85;25732;-67
2022/09/11 08:06:14;;;;;;;24.35;12.75;;;;;;;11.38;95.77;99591.80;1662450;85;25646;-68
2022/09/11 08:08:42;;;;;;;18.00;12.20;;;;;;;11.38;95.76;99595.08;1666406;85;25586;-68
2022/09/11 08:11:13;;;;;;;16.85;11.43;;;;;;;11.39;96.17;99593.39;1668635;84;27264;-68
2022/09/11 08:13:40;;;;;;;15.95;11.25;;;;;;;11.41;96.05;99601.19;1658847;85;25759;-68
2022/09/11 08:16:07;;;;;;;20.17;12.40;;;;;;;11.36;95.75;99595.40;1659304;85;26061;-69
2022/09/11 08:18:36;;;;;;;17.42;10.98;;;;;;;11.36;95.73;99604.09;1637877;85;25633;-68
2022/09/11 08:21:07;;;;;;;19.02;10.68;;;;;;;11.33;95.67;99601.47;1652987;85;25675;-69
2022/09/11 08:23:34;;;;;;;13.58;9.53;;;;;;;11.31;95.43;99599.66;1674465;85;27925;-69
2022/09/11 08:26:10;;;;;;;15.00;9.70;;;;;;;11.28;95.51;99602.24;1668535;84;25640;-69
2022/09/11 08:28:38;;;;;;;12.43;8.25;;;;;;;11.28;95.52;99603.59;1649594;85;25771;-69
2022/09/11 08:31:06;;;;;;;14.75;9.13;;;;;;;11.24;95.55;99603.47;1646662;85;25697;-69
2022/09/11 08:33:33;;;;;;;14.60;8.85;;;;;;;11.26;95.86;99603.92;1660933;85;25654;-69
2022/09/11 08:36:03;;;;;;;12.28;8.78;;;;;;;11.27;95.91;99606.88;1660640;84;27934;-69
2022/09/11 08:38:30;;;;;;;13.43;8.70;;;;;;;11.29;96.06;99607.33;1661440;85;25747;-69
2022/09/11 08:41:01;;;;;;;15.98;9.40;;;;;;;11.32;96.29;99608.56;1654114;85;25432;-70
2022/09/11 08:43:32;;;;;;;15.88;9.43;;;;;;;11.33;96.25;99604.18;1650936;84;26374;-70
2022/09/11 08:46:03;;;;;;;10.23;8.18;;;;;;;11.32;96.00;99610.73;1641500;84;25459;-69
2022/09/11 08:48:50;;;;;;;12.53;9.25;;;;;;;11.33;96.06;99615.01;1655871;84;31027;-69
2022/09/11 08:51:17;;;;;;;13.95;9.73;;;;;;;11.32;96.01;99610.73;1660771;85;25626;-68
2022/09/11 08:53:45;;;;;;;14.87;9.68;;;;;;;11.34;96.07;99614.44;1660675;85;25668;-68
2022/09/11 08:56:18;;;;;;;13.22;9.48;;;;;;;11.33;96.22;99612.87;1637330;86;25696;-69
2022/09/11 08:59:18;;;;;;;13.10;8.68;;;;;;;11.35;96.28;99614.69;1634714;85;25225;-69
2022/09/11 09:02:08;;;;;;;13.30;9.05;;;;;;;11.35;96.21;99611.97;1660204;85;28291;-71
2022/09/11 09:04:41;;;;;;;;;;;;;;;11.34;96.10;99615.80;1658902;85;25877;-70
2022/09/11 09:07:40;;;;;;;15.05;8.73;;;;;;;11.33;96.07;99616.94;1644315;84;25453;-70
2022/09/11 09:10:35;;;;;;;15.58;9.65;;;;;;;11.30;96.13;99618.38;1643229;85;25613;-69
2022/09/11 09:13:41;;;;;;;14.30;8.93;;;;;;;11.31;96.32;99621.89;1644435;85;25507;-70
2022/09/11 09:16:49;;;;;;;12.88;8.13;;;;;;;11.30;96.12;99625.71;1642067;85;28010;-68
2022/09/11 09:19:36;;;;;;;10.93;7.58;;;;;;;11.29;95.98;99624.92;1661154;85;25770;-71
2022/09/11 09:22:27;;;;;;;12.60;9.00;;;;;;;11.30;96.28;99616.23;1646490;85;25696;-71
2022/09/11 09:25:00;;;;;;;13.35;8.75;;;;;;;11.30;96.21;99622.43;1606445;88;25723;-70
2022/09/11 09:27:32;;;;;;;14.23;9.25;;;;;;;11.32;96.51;99619.39;1647826;85;25621;-72
2022/09/11 09:30:04;;;;;;;9.93;7.58;;;;;;;11.32;96.59;99620.21;1649520;85;27332;-71
2022/09/11 09:32:44;;;;;;;12.13;8.55;;;;;;;11.32;96.56;99624.81;1624889;86;25659;-70
2022/09/11 09:35:20;;;;;;;15.25;7.70;;;;;;;11.31;96.53;99621.89;1650113;85;25622;-71
2022/09/11 09:37:47;;;;;;;15.90;8.08;;;;;;;11.33;96.11;99625.05;1630752;86;25756;-70
2022/09/11 09:40:17;;;;;;;11.22;7.60;;;;;;;11.28;95.73;99621.98;1639404;87;25671;-69
2022/09/11 09:43:10;;;;;;;10.30;7.22;;;;;;;11.27;95.76;99627.72;1636580;85;27953;-70
2022/09/11 09:45:48;;;;;;;10.82;7.17;;;;;;;11.25;95.84;99630.75;1636348;86;25764;-69
2022/09/11 09:48:15;;;;;;;12.07;6.67;;;;;;;11.24;96.04;99629.19;1623050;86;25891;-69
2022/09/11 09:50:45;;;;;;;9.28;6.47;;;;;;;11.20;95.59;99629.59;1639955;85;27789;-72
2022/09/11 09:53:34;;;;;;;10.65;7.08;;;;;;;11.18;95.46;99622.37;1673521;85;25748;-73
2022/09/11 09:56:04;;;;;;;;;;;;;;;11.13;95.60;99626.05;1667255;85;27313;-74
2022/09/11 09:58:57;;;;;;;;;;;;;;;11.11;95.67;99625.59;1647695;85;25676;-72
2022/09/11 10:01:47;;;;;;;9.25;7.50;;;;;;;11.08;96.01;99627.59;1645336;85;25582;-72
2022/09/11 10:04:18;;;;;;;12.45;7.20;;;;;;;11.13;97.18;99626.05;1621057;87;25823;-67
2022/09/11 10:06:48;;;;;;;9.33;6.78;;;;;;;11.21;97.66;99631.19;1630371;87;25352;-69
2022/09/11 10:09:27;;;;;;;10.75;7.70;;;;;;;11.22;96.94;99630.08;1615342;87;27665;-67
2022/09/11 10:12:04;;;;;;;11.35;7.60;;;;;;;11.23;96.78;99626.23;1659590;85;25402;-67
2022/09/11 10:14:36;;;;;;;10.50;6.80;;;;;;;11.22;96.76;99623.31;1658153;85;25699;-67
2022/09/11 10:17:03;;;;;;;11.05;6.15;;;;;;;11.23;96.54;99621.39;1646158;85;26242;-67
2022/09/11 10:19:40;;;;;;;8.68;6.75;;;;;;;11.23;96.50;99620.82;1644269;85;25731;-67
2022/09/11 10:22:29;;;;;;;7.25;6.28;;;;;;;11.18;95.55;99617.73;1646141;85;27417;-65
2022/09/11 10:25:03;;;;;;;8.85;6.67;;;;;;;11.16;95.55;99620.56;1644135;85;25443;-66
2022/09/11 10:27:34;;;;;;;8.18;6.15;;;;;;;11.13;95.71;99611.16;1615468;87;25797;-68
2022/09/11 10:30:04;;;;;;;9.63;7.22;;;;;;;11.08;95.11;99608.66;1616506;87;25802;-67
2022/09/11 10:32:35;;;;;;;8.85;6.70;;;;;;;11.07;95.53;99609.80;1645500;85;25832;-68
2022/09/11 10:35:07;;;;;;;11.20;6.62;;;;;;;11.08;95.86;99609.22;1645229;85;27479;-68
2022/09/11 10:37:34;;;;;;;10.45;7.03;;;;;;;11.09;96.42;99606.19;1643001;85;25720;-66
2022/09/11 10:40:06;;;;;;;10.50;6.90;;;;;;;11.12;96.66;99606.89;1659617;84;25683;-65
2022/09/11 10:42:34;;;;;;;11.05;8.00;;;;;;;11.14;96.64;99601.16;1657829;84;25786;-65
2022/09/11 10:45:14;;;;;;;12.20;7.10;;;;;;;11.16;96.92;99601.61;1659732;84;25625;-66
2022/09/11 10:47:41;;;;;;;7.95;6.55;;;;;;;11.19;96.97;99597.68;1659605;84;28111;-66
2022/09/11 10:50:24;;;;;;;10.98;7.03;;;;;;;11.21;96.55;99608.18;1659748;84;25717;-69
2022/09/11 10:52:58;;;;;;;11.50;7.28;;;;;;;11.22;96.51;99605.72;1656581;84;139692;-66
2022/09/11 10:55:34;;;;;;;9.43;7.05;;;;;;;11.25;96.91;99600.19;1659620;84;25676;-66
2022/09/11 10:58:16;;;;;;;9.13;6.35;;;;;;;11.23;96.73;99591.05;1659773;84;25640;-67
2022/09/11 11:00:43;;;;;;;10.03;7.17;;;;;;;11.25;96.91;99596.13;1658998;84;28071;-67
2022/09/11 11:03:22;;;;;;;12.98;6.87;;;;;;;11.29;97.34;99600.56;1662556;84;25358;-67
2022/09/11 11:06:44;;;;;;;15.80;10.58;;;;;;;11.36;98.01;99602.74;1621196;87;25611;-67
2022/09/11 11:09:34;;;;;;;11.63;8.88;;;;;;;11.42;98.06;99599.27;1683836;84;25875;-67
2022/09/11 11:12:16;;;;;;;12.78;8.60;;;;;;;11.50;98.69;99598.41;1680141;84;25747;-69
2022/09/11 11:15:06;;;;;;;19.07;9.80;;;;;;;11.54;98.52;99592.00;1687712;83;27713;-67
2022/09/11 11:18:16;;;;;;;14.80;8.90;;;;;;;11.60;98.35;99592.58;1642711;86;25454;-67
2022/09/11 11:21:08;;;;;;;17.62;10.72;;;;;;;11.65;98.21;99591.59;1681953;84;25721;-66
2022/09/11 11:23:56;;;;;;;14.28;9.10;;;;;;;11.70;98.35;99598.94;1665609;84;26273;-65
2022/09/11 11:26:53;;;;;;;15.40;9.25;;;;;;;11.75;98.66;99594.66;1685899;84;25446;-65
2022/09/11 11:30:03;;;;;;;12.15;8.58;;;;;;;11.82;98.62;99588.70;1667768;84;29524;-66
2022/09/11 11:32:54;;;;;;;11.78;8.40;;;;;;;11.82;97.52;99591.98;1665665;84;25946;-66
2022/09/11 11:35:35;;;;;;;10.70;7.90;;;;;;;11.87;98.46;99592.56;1666118;84;25520;-66
2022/09/11 11:38:26;;;;;;;12.53;8.23;;;;;;;11.91;98.43;99590.78;1624255;88;25615;-67
2022/09/11 11:41:02;;;;;;;12.85;9.15;;;;;;;11.97;98.65;99584.60;1674130;84;25597;-66
2022/09/11 11:43:33;;;;;;;13.70;8.13;;;;;;;11.99;98.53;99590.47;1689265;84;27043;-65
2022/09/11 11:46:22;;;;;;;13.03;9.20;;;;;;;12.09;99.25;99589.27;1701043;84;25734;-66
2022/09/11 11:49:02;;;;;;;17.10;9.53;;;;;;;12.16;99.24;99588.14;1676362;84;25831;-67
2022/09/11 11:51:40;;;;;;;13.22;10.03;;;;;;;12.25;100.00;99592.88;1665711;85;26458;-65
2022/09/11 11:54:17;;;;;;;12.45;9.40;;;;;;;12.32;99.17;99586.33;1686674;82;34794;-66
2022/09/11 11:56:50;;;;;;;13.38;9.50;;;;;;;12.40;99.64;99589.30;1679755;84;28532;-66